sensor_id;sensor_type;location;lat;lon;timestamp;P1;durP1;ratioP1;P2;durP2;ratioP2
63818;SDS011;49970;54.976;73.248;2023-04-25T00:01:18;12.40;;;1.10;;
63818;SDS011;49970;54.976;73.248;2023-04-25T00:03:49;4.13;;;1.33;;
63818;SDS011;49970;54.976;73.248;2023-04-25T00:06:15;3.88;;;1.40;;
63818;SDS011;49970;54.976;73.248;2023-04-25T00:08:43;4.72;;;1.25;;
63818;SDS011;49970;54.976;73.248;2023-04-25T00:11:20;8.90;;;1.52;;
63818;SDS011;49970;54.976;73.248;2023-04-25T00:13:56;3.90;;;1.60;;
63818;SDS011;49970;54.976;73.248;2023-04-25T00:16:23;1.85;;;1.75;;
63818;SDS011;49970;54.976;73.248;2023-04-25T00:18:49;6.47;;;1.92;;
63818;SDS011;49970;54.976;73.248;2023-04-25T00:22:40;4.05;;;1.83;;
63818;SDS011;49970;54.976;73.248;2023-04-25T00:26:56;4.35;;;1.60;;
63818;SDS011;49970;54.976;73.248;2023-04-25T00:30:47;2.58;;;1.73;;
63818;SDS011;49970;54.976;73.248;2023-04-25T00:34:38;5.25;;;1.80;;
63818;SDS011;49970;54.976;73.248;2023-04-25T00:38:27;7.32;;;2.35;;
63818;SDS011;49970;54.976;73.248;2023-04-25T00:40:53;7.50;;;2.33;;
63818;SDS011;49970;54.976;73.248;2023-04-25T00:43:21;14.55;;;2.50;;
63818;SDS011;49970;54.976;73.248;2023-04-25T00:45:52;5.32;;;2.05;;
63818;SDS011;49970;54.976;73.248;2023-04-25T00:48:21;12.35;;;2.47;;
63818;SDS011;49970;54.976;73.248;2023-04-25T00:50:52;3.65;;;1.77;;
63818;SDS011;49970;54.976;73.248;2023-04-25T00:53:20;6.85;;;2.47;;
63818;SDS011;49970;54.976;73.248;2023-04-25T00:55:47;13.23;;;2.50;;
63818;SDS011;49970;54.976;73.248;2023-04-25T00:58:20;28.77;;;2.17;;
63818;SDS011;49970;54.976;73.248;2023-04-25T01:00:47;17.15;;;2.63;;
63818;SDS011;49970;54.976;73.248;2023-04-25T01:03:15;8.85;;;2.45;;
63818;SDS011;49970;54.976;73.248;2023-04-25T01:05:47;14.55;;;1.90;;
63818;SDS011;49970;54.976;73.248;2023-04-25T01:08:14;13.88;;;1.92;;
63818;SDS011;49970;54.976;73.248;2023-04-25T01:10:40;7.55;;;2.42;;
63818;SDS011;49970;54.976;73.248;2023-04-25T01:13:07;3.83;;;1.90;;
63818;SDS011;49970;54.976;73.248;2023-04-25T01:15:38;12.75;;;1.85;;
63818;SDS011;49970;54.976;73.248;2023-04-25T01:18:05;21.63;;;2.10;;
63818;SDS011;49970;54.976;73.248;2023-04-25T01:20:33;13.30;;;1.77;;
63818;SDS011;49970;54.976;73.248;2023-04-25T01:23:00;13.75;;;1.92;;
63818;SDS011;49970;54.976;73.248;2023-04-25T01:25:33;12.05;;;2.03;;
63818;SDS011;49970;54.976;73.248;2023-04-25T01:27:59;7.95;;;2.08;;
63818;SDS011;49970;54.976;73.248;2023-04-25T01:30:27;12.18;;;1.98;;
63818;SDS011;49970;54.976;73.248;2023-04-25T01:32:55;10.90;;;2.30;;
63818;SDS011;49970;54.976;73.248;2023-04-25T01:35:22;4.28;;;2.28;;
63818;SDS011;49970;54.976;73.248;2023-04-25T01:37:52;18.40;;;2.70;;
63818;SDS011;49970;54.976;73.248;2023-04-25T01:40:19;18.45;;;3.58;;
63818;SDS011;49970;54.976;73.248;2023-04-25T01:42:48;16.00;;;2.38;;
63818;SDS011;49970;54.976;73.248;2023-04-25T01:45:14;55.70;;;4.65;;
63818;SDS011;49970;54.976;73.248;2023-04-25T01:47:47;9.52;;;1.92;;
63818;SDS011;49970;54.976;73.248;2023-04-25T01:50:15;20.38;;;2.55;;
63818;SDS011;49970;54.976;73.248;2023-04-25T01:52:44;5.80;;;1.70;;
63818;SDS011;49970;54.976;73.248;2023-04-25T01:55:12;6.18;;;1.77;;
63818;SDS011;49970;54.976;73.248;2023-04-25T01:57:44;17.77;;;2.40;;
63818;SDS011;49970;54.976;73.248;2023-04-25T02:00:11;10.30;;;2.85;;
63818;SDS011;49970;54.976;73.248;2023-04-25T02:02:38;17.52;;;2.28;;
63818;SDS011;49970;54.976;73.248;2023-04-25T02:05:07;10.45;;;1.80;;
63818;SDS011;49970;54.976;73.248;2023-04-25T02:07:43;12.45;;;2.45;;
63818;SDS011;49970;54.976;73.248;2023-04-25T02:10:09;16.30;;;2.45;;
63818;SDS011;49970;54.976;73.248;2023-04-25T02:12:44;22.15;;;1.70;;
63818;SDS011;49970;54.976;73.248;2023-04-25T02:15:13;11.55;;;2.17;;
63818;SDS011;49970;54.976;73.248;2023-04-25T02:17:54;16.98;;;2.35;;
63818;SDS011;49970;54.976;73.248;2023-04-25T02:20:20;22.60;;;2.47;;
63818;SDS011;49970;54.976;73.248;2023-04-25T02:22:47;12.02;;;2.20;;
63818;SDS011;49970;54.976;73.248;2023-04-25T02:25:15;8.80;;;2.10;;
63818;SDS011;49970;54.976;73.248;2023-04-25T02:27:42;3.17;;;1.90;;
63818;SDS011;49970;54.976;73.248;2023-04-25T02:30:09;12.63;;;2.10;;
63818;SDS011;49970;54.976;73.248;2023-04-25T02:32:46;23.10;;;2.30;;
63818;SDS011;49970;54.976;73.248;2023-04-25T02:35:12;15.75;;;2.50;;
63818;SDS011;49970;54.976;73.248;2023-04-25T02:37:45;16.55;;;2.45;;
63818;SDS011;49970;54.976;73.248;2023-04-25T02:40:12;6.80;;;2.53;;
63818;SDS011;49970;54.976;73.248;2023-04-25T02:42:39;5.90;;;2.38;;
63818;SDS011;49970;54.976;73.248;2023-04-25T02:45:15;9.15;;;2.13;;
63818;SDS011;49970;54.976;73.248;2023-04-25T02:47:41;32.47;;;3.10;;
63818;SDS011;49970;54.976;73.248;2023-04-25T02:50:17;22.20;;;2.47;;
63818;SDS011;49970;54.976;73.248;2023-04-25T02:52:44;9.70;;;2.58;;
63818;SDS011;49970;54.976;73.248;2023-04-25T02:55:15;8.20;;;2.33;;
63818;SDS011;49970;54.976;73.248;2023-04-25T02:57:42;7.22;;;2.17;;
63818;SDS011;49970;54.976;73.248;2023-04-25T03:00:12;3.88;;;2.53;;
63818;SDS011;49970;54.976;73.248;2023-04-25T03:02:39;13.55;;;2.50;;
63818;SDS011;49970;54.976;73.248;2023-04-25T03:05:06;12.35;;;2.42;;
63818;SDS011;49970;54.976;73.248;2023-04-25T03:07:33;20.15;;;2.80;;
63818;SDS011;49970;54.976;73.248;2023-04-25T03:10:00;15.13;;;2.15;;
63818;SDS011;49970;54.976;73.248;2023-04-25T03:12:32;24.08;;;2.47;;
63818;SDS011;49970;54.976;73.248;2023-04-25T03:15:09;7.20;;;2.45;;
63818;SDS011;49970;54.976;73.248;2023-04-25T03:17:35;20.55;;;2.50;;
63818;SDS011;49970;54.976;73.248;2023-04-25T03:20:02;17.33;;;2.30;;
63818;SDS011;49970;54.976;73.248;2023-04-25T03:22:30;13.18;;;2.35;;
63818;SDS011;49970;54.976;73.248;2023-04-25T03:25:02;17.50;;;2.30;;
63818;SDS011;49970;54.976;73.248;2023-04-25T03:27:39;4.18;;;1.95;;
63818;SDS011;49970;54.976;73.248;2023-04-25T03:30:05;32.88;;;2.58;;
63818;SDS011;49970;54.976;73.248;2023-04-25T03:32:34;21.77;;;2.80;;
63818;SDS011;49970;54.976;73.248;2023-04-25T03:35:01;8.27;;;2.28;;
63818;SDS011;49970;54.976;73.248;2023-04-25T03:37:28;11.75;;;2.17;;
63818;SDS011;49970;54.976;73.248;2023-04-25T03:39:54;5.80;;;1.98;;
63818;SDS011;49970;54.976;73.248;2023-04-25T03:42:23;22.27;;;2.70;;
63818;SDS011;49970;54.976;73.248;2023-04-25T03:44:50;24.60;;;2.58;;
63818;SDS011;49970;54.976;73.248;2023-04-25T03:47:17;10.57;;;2.08;;
63818;SDS011;49970;54.976;73.248;2023-04-25T03:49:55;25.10;;;3.13;;
63818;SDS011;49970;54.976;73.248;2023-04-25T03:52:23;12.60;;;2.33;;
63818;SDS011;49970;54.976;73.248;2023-04-25T03:54:49;13.52;;;2.17;;
63818;SDS011;49970;54.976;73.248;2023-04-25T03:57:18;22.30;;;2.20;;
63818;SDS011;49970;54.976;73.248;2023-04-25T03:59:45;32.35;;;2.90;;
63818;SDS011;49970;54.976;73.248;2023-04-25T04:02:13;65.45;;;3.85;;
63818;SDS011;49970;54.976;73.248;2023-04-25T04:04:45;26.60;;;2.65;;
63818;SDS011;49970;54.976;73.248;2023-04-25T04:07:12;5.20;;;2.25;;
63818;SDS011;49970;54.976;73.248;2023-04-25T04:09:46;18.50;;;2.33;;
63818;SDS011;49970;54.976;73.248;2023-04-25T04:12:17;20.25;;;2.60;;
63818;SDS011;49970;54.976;73.248;2023-04-25T04:14:44;17.67;;;1.90;;
63818;SDS011;49970;54.976;73.248;2023-04-25T04:18:36;20.95;;;2.25;;
63818;SDS011;49970;54.976;73.248;2023-04-25T04:22:37;13.43;;;1.85;;
63818;SDS011;49970;54.976;73.248;2023-04-25T04:25:08;20.65;;;1.73;;
63818;SDS011;49970;54.976;73.248;2023-04-25T04:27:54;16.67;;;1.98;;
63818;SDS011;49970;54.976;73.248;2023-04-25T04:30:32;23.63;;;2.25;;
63818;SDS011;49970;54.976;73.248;2023-04-25T04:33:04;11.52;;;1.30;;
63818;SDS011;49970;54.976;73.248;2023-04-25T04:35:30;11.00;;;1.92;;
63818;SDS011;49970;54.976;73.248;2023-04-25T04:37:57;6.38;;;1.90;;
63818;SDS011;49970;54.976;73.248;2023-04-25T04:40:26;50.08;;;2.85;;
63818;SDS011;49970;54.976;73.248;2023-04-25T04:43:06;11.90;;;1.40;;
63818;SDS011;49970;54.976;73.248;2023-04-25T04:46:00;23.88;;;2.35;;
63818;SDS011;49970;54.976;73.248;2023-04-25T04:48:59;57.72;;;2.83;;
63818;SDS011;49970;54.976;73.248;2023-04-25T04:51:58;23.25;;;2.30;;
63818;SDS011;49970;54.976;73.248;2023-04-25T04:54:43;7.53;;;1.42;;
63818;SDS011;49970;54.976;73.248;2023-04-25T04:57:27;6.47;;;1.73;;
63818;SDS011;49970;54.976;73.248;2023-04-25T05:00:22;9.82;;;1.40;;
63818;SDS011;49970;54.976;73.248;2023-04-25T05:03:13;61.67;;;3.00;;
63818;SDS011;49970;54.976;73.248;2023-04-25T05:05:51;9.02;;;1.25;;
63818;SDS011;49970;54.976;73.248;2023-04-25T05:09:04;33.17;;;2.03;;
63818;SDS011;49970;54.976;73.248;2023-04-25T05:12:08;12.73;;;1.35;;
63818;SDS011;49970;54.976;73.248;2023-04-25T05:14:59;7.35;;;1.38;;
63818;SDS011;49970;54.976;73.248;2023-04-25T05:17:46;11.93;;;1.30;;
63818;SDS011;49970;54.976;73.248;2023-04-25T05:20:33;17.35;;;1.70;;
63818;SDS011;49970;54.976;73.248;2023-04-25T05:23:22;8.90;;;1.42;;
63818;SDS011;49970;54.976;73.248;2023-04-25T05:25:51;18.00;;;1.95;;
63818;SDS011;49970;54.976;73.248;2023-04-25T05:28:36;14.43;;;1.80;;
63818;SDS011;49970;54.976;73.248;2023-04-25T05:31:14;27.85;;;1.90;;
63818;SDS011;49970;54.976;73.248;2023-04-25T05:33:54;12.00;;;1.83;;
63818;SDS011;49970;54.976;73.248;2023-04-25T05:36:28;12.10;;;1.95;;
63818;SDS011;49970;54.976;73.248;2023-04-25T05:38:55;13.07;;;1.48;;
63818;SDS011;49970;54.976;73.248;2023-04-25T05:41:21;15.27;;;1.73;;
63818;SDS011;49970;54.976;73.248;2023-04-25T05:43:54;18.95;;;1.70;;
63818;SDS011;49970;54.976;73.248;2023-04-25T05:46:52;6.70;;;1.38;;
63818;SDS011;49970;54.976;73.248;2023-04-25T05:49:42;6.50;;;2.65;;
63818;SDS011;49970;54.976;73.248;2023-04-25T05:52:47;7.47;;;1.23;;
63818;SDS011;49970;54.976;73.248;2023-04-25T05:55:46;10.02;;;1.58;;
63818;SDS011;49970;54.976;73.248;2023-04-25T06:00:58;19.13;;;1.70;;
63818;SDS011;49970;54.976;73.248;2023-04-25T06:03:25;13.65;;;2.15;;
63818;SDS011;49970;54.976;73.248;2023-04-25T06:05:52;5.15;;;1.33;;
63818;SDS011;49970;54.976;73.248;2023-04-25T06:08:29;8.88;;;1.50;;
63818;SDS011;49970;54.976;73.248;2023-04-25T06:10:55;9.20;;;1.25;;
63818;SDS011;49970;54.976;73.248;2023-04-25T06:13:22;13.05;;;1.60;;
63818;SDS011;49970;54.976;73.248;2023-04-25T06:15:48;8.10;;;1.08;;
63818;SDS011;49970;54.976;73.248;2023-04-25T06:18:15;9.73;;;1.55;;
63818;SDS011;49970;54.976;73.248;2023-04-25T06:20:41;15.40;;;1.40;;
63818;SDS011;49970;54.976;73.248;2023-04-25T06:23:08;15.40;;;1.55;;
63818;SDS011;49970;54.976;73.248;2023-04-25T06:25:52;11.15;;;1.23;;
63818;SDS011;49970;54.976;73.248;2023-04-25T06:28:18;6.78;;;1.50;;
63818;SDS011;49970;54.976;73.248;2023-04-25T06:30:54;10.27;;;1.60;;
63818;SDS011;49970;54.976;73.248;2023-04-25T06:33:21;6.03;;;1.27;;
63818;SDS011;49970;54.976;73.248;2023-04-25T06:35:51;15.70;;;1.52;;
63818;SDS011;49970;54.976;73.248;2023-04-25T06:38:22;4.82;;;1.92;;
63818;SDS011;49970;54.976;73.248;2023-04-25T06:40:50;5.95;;;1.55;;
63818;SDS011;49970;54.976;73.248;2023-04-25T06:43:18;15.07;;;1.73;;
63818;SDS011;49970;54.976;73.248;2023-04-25T06:46:12;18.73;;;2.22;;
63818;SDS011;49970;54.976;73.248;2023-04-25T06:48:43;4.15;;;1.42;;
63818;SDS011;49970;54.976;73.248;2023-04-25T06:51:10;10.20;;;1.38;;
63818;SDS011;49970;54.976;73.248;2023-04-25T06:53:39;14.02;;;1.63;;
63818;SDS011;49970;54.976;73.248;2023-04-25T06:56:09;10.82;;;1.45;;
63818;SDS011;49970;54.976;73.248;2023-04-25T06:59:07;18.88;;;1.42;;
63818;SDS011;49970;54.976;73.248;2023-04-25T07:01:38;5.03;;;1.20;;
63818;SDS011;49970;54.976;73.248;2023-04-25T07:04:16;4.72;;;1.38;;
63818;SDS011;49970;54.976;73.248;2023-04-25T07:06:53;7.05;;;1.52;;
63818;SDS011;49970;54.976;73.248;2023-04-25T07:09:27;6.93;;;1.55;;
63818;SDS011;49970;54.976;73.248;2023-04-25T07:11:54;26.73;;;1.85;;
63818;SDS011;49970;54.976;73.248;2023-04-25T07:14:22;6.75;;;1.63;;
63818;SDS011;49970;54.976;73.248;2023-04-25T07:16:48;8.45;;;2.00;;
63818;SDS011;49970;54.976;73.248;2023-04-25T07:19:15;4.82;;;1.40;;
63818;SDS011;49970;54.976;73.248;2023-04-25T07:21:41;16.88;;;1.48;;
63818;SDS011;49970;54.976;73.248;2023-04-25T07:24:07;18.70;;;2.13;;
63818;SDS011;49970;54.976;73.248;2023-04-25T07:26:38;17.27;;;2.55;;
63818;SDS011;49970;54.976;73.248;2023-04-25T07:29:27;14.95;;;1.45;;
63818;SDS011;49970;54.976;73.248;2023-04-25T07:31:57;5.85;;;1.23;;
63818;SDS011;49970;54.976;73.248;2023-04-25T07:34:26;18.15;;;1.15;;
63818;SDS011;49970;54.976;73.248;2023-04-25T07:37:01;13.38;;;1.90;;
63818;SDS011;49970;54.976;73.248;2023-04-25T07:39:35;8.68;;;1.50;;
63818;SDS011;49970;54.976;73.248;2023-04-25T07:42:03;10.45;;;1.23;;
63818;SDS011;49970;54.976;73.248;2023-04-25T07:44:30;28.08;;;1.80;;
63818;SDS011;49970;54.976;73.248;2023-04-25T07:46:56;3.72;;;1.17;;
63818;SDS011;49970;54.976;73.248;2023-04-25T07:49:23;7.40;;;1.40;;
63818;SDS011;49970;54.976;73.248;2023-04-25T07:51:49;19.60;;;1.35;;
63818;SDS011;49970;54.976;73.248;2023-04-25T07:54:18;22.30;;;1.48;;
63818;SDS011;49970;54.976;73.248;2023-04-25T07:56:49;8.60;;;1.20;;
63818;SDS011;49970;54.976;73.248;2023-04-25T07:59:16;8.27;;;1.10;;
63818;SDS011;49970;54.976;73.248;2023-04-25T08:01:54;6.38;;;1.10;;
63818;SDS011;49970;54.976;73.248;2023-04-25T08:04:29;12.43;;;1.35;;
63818;SDS011;49970;54.976;73.248;2023-04-25T08:07:01;7.20;;;1.33;;
63818;SDS011;49970;54.976;73.248;2023-04-25T08:09:31;2.05;;;0.90;;
63818;SDS011;49970;54.976;73.248;2023-04-25T08:12:04;5.20;;;1.30;;
63818;SDS011;49970;54.976;73.248;2023-04-25T08:14:35;17.67;;;1.40;;
63818;SDS011;49970;54.976;73.248;2023-04-25T08:17:03;8.93;;;0.98;;
63818;SDS011;49970;54.976;73.248;2023-04-25T08:19:37;4.75;;;1.52;;
63818;SDS011;49970;54.976;73.248;2023-04-25T08:22:08;16.80;;;1.95;;
63818;SDS011;49970;54.976;73.248;2023-04-25T08:24:45;12.18;;;1.75;;
63818;SDS011;49970;54.976;73.248;2023-04-25T08:27:17;1.67;;;1.00;;
63818;SDS011;49970;54.976;73.248;2023-04-25T08:29:44;7.45;;;1.45;;
63818;SDS011;49970;54.976;73.248;2023-04-25T08:32:15;4.50;;;0.85;;
63818;SDS011;49970;54.976;73.248;2023-04-25T08:34:53;6.28;;;1.20;;
63818;SDS011;49970;54.976;73.248;2023-04-25T08:37:26;6.57;;;1.40;;
63818;SDS011;49970;54.976;73.248;2023-04-25T08:40:04;3.38;;;1.48;;
63818;SDS011;49970;54.976;73.248;2023-04-25T08:42:33;5.93;;;1.10;;
63818;SDS011;49970;54.976;73.248;2023-04-25T08:45:02;4.65;;;1.13;;
63818;SDS011;49970;54.976;73.248;2023-04-25T08:47:33;6.00;;;1.35;;
63818;SDS011;49970;54.976;73.248;2023-04-25T08:50:03;15.88;;;1.63;;
63818;SDS011;49970;54.976;73.248;2023-04-25T08:52:35;25.88;;;1.45;;
63818;SDS011;49970;54.976;73.248;2023-04-25T08:55:08;22.50;;;1.35;;
63818;SDS011;49970;54.976;73.248;2023-04-25T08:57:39;9.00;;;1.27;;
63818;SDS011;49970;54.976;73.248;2023-04-25T09:00:09;14.65;;;0.90;;
63818;SDS011;49970;54.976;73.248;2023-04-25T09:02:39;6.20;;;1.83;;
63818;SDS011;49970;54.976;73.248;2023-04-25T09:05:07;6.50;;;1.50;;
63818;SDS011;49970;54.976;73.248;2023-04-25T09:07:38;5.68;;;1.40;;
63818;SDS011;49970;54.976;73.248;2023-04-25T09:10:05;4.25;;;1.17;;
63818;SDS011;49970;54.976;73.248;2023-04-25T09:12:35;8.50;;;0.80;;
63818;SDS011;49970;54.976;73.248;2023-04-25T09:15:06;13.30;;;1.30;;
63818;SDS011;49970;54.976;73.248;2023-04-25T09:18:13;6.90;;;2.05;;
63818;SDS011;49970;54.976;73.248;2023-04-25T09:20:53;7.07;;;2.10;;
63818;SDS011;49970;54.976;73.248;2023-04-25T09:23:22;10.82;;;1.60;;
63818;SDS011;49970;54.976;73.248;2023-04-25T09:25:49;23.05;;;1.90;;
63818;SDS011;49970;54.976;73.248;2023-04-25T09:28:24;9.63;;;1.23;;
63818;SDS011;49970;54.976;73.248;2023-04-25T09:30:58;2.35;;;0.95;;
63818;SDS011;49970;54.976;73.248;2023-04-25T09:33:35;3.33;;;1.63;;
63818;SDS011;49970;54.976;73.248;2023-04-25T09:36:04;3.95;;;1.02;;
63818;SDS011;49970;54.976;73.248;2023-04-25T09:38:50;4.28;;;1.10;;
63818;SDS011;49970;54.976;73.248;2023-04-25T09:41:26;7.60;;;1.48;;
63818;SDS011;49970;54.976;73.248;2023-04-25T09:43:59;2.40;;;1.13;;
63818;SDS011;49970;54.976;73.248;2023-04-25T09:46:41;7.43;;;1.00;;
63818;SDS011;49970;54.976;73.248;2023-04-25T09:49:27;4.88;;;1.00;;
63818;SDS011;49970;54.976;73.248;2023-04-25T09:52:00;2.08;;;1.17;;
63818;SDS011;49970;54.976;73.248;2023-04-25T09:54:38;3.28;;;1.58;;
63818;SDS011;49970;54.976;73.248;2023-04-25T09:57:21;6.32;;;1.30;;
63818;SDS011;49970;54.976;73.248;2023-04-25T09:59:52;11.25;;;1.50;;
63818;SDS011;49970;54.976;73.248;2023-04-25T10:02:23;10.55;;;1.27;;
63818;SDS011;49970;54.976;73.248;2023-04-25T10:04:54;20.00;;;1.85;;
63818;SDS011;49970;54.976;73.248;2023-04-25T10:07:25;4.63;;;2.15;;
63818;SDS011;49970;54.976;73.248;2023-04-25T10:09:59;9.88;;;3.08;;
63818;SDS011;49970;54.976;73.248;2023-04-25T10:12:30;4.57;;;1.45;;
63818;SDS011;49970;54.976;73.248;2023-04-25T10:14:58;1.63;;;1.10;;
63818;SDS011;49970;54.976;73.248;2023-04-25T10:17:26;11.45;;;1.52;;
63818;SDS011;49970;54.976;73.248;2023-04-25T10:19:54;11.88;;;1.15;;
63818;SDS011;49970;54.976;73.248;2023-04-25T10:22:23;24.15;;;1.30;;
63818;SDS011;49970;54.976;73.248;2023-04-25T10:24:56;18.95;;;1.90;;
63818;SDS011;49970;54.976;73.248;2023-04-25T10:27:23;7.20;;;1.30;;
63818;SDS011;49970;54.976;73.248;2023-04-25T10:30:08;7.15;;;1.10;;
63818;SDS011;49970;54.976;73.248;2023-04-25T10:32:51;9.60;;;1.13;;
63818;SDS011;49970;54.976;73.248;2023-04-25T10:35:24;7.20;;;1.52;;
63818;SDS011;49970;54.976;73.248;2023-04-25T10:37:57;7.53;;;1.35;;
63818;SDS011;49970;54.976;73.248;2023-04-25T10:40:36;9.87;;;1.43;;
63818;SDS011;49970;54.976;73.248;2023-04-25T10:46:23;9.88;;;1.65;;
63818;SDS011;49970;54.976;73.248;2023-04-25T10:48:57;2.78;;;1.52;;
63818;SDS011;49970;54.976;73.248;2023-04-25T10:51:25;10.20;;;1.60;;
63818;SDS011;49970;54.976;73.248;2023-04-25T10:59:10;9.35;;;1.35;;
63818;SDS011;49970;54.976;73.248;2023-04-25T11:01:41;2.60;;;1.25;;
63818;SDS011;49970;54.976;73.248;2023-04-25T11:04:22;3.35;;;0.90;;
63818;SDS011;49970;54.976;73.248;2023-04-25T11:09:28;12.32;;;1.30;;
63818;SDS011;49970;54.976;73.248;2023-04-25T11:11:54;9.73;;;1.05;;
63818;SDS011;49970;54.976;73.248;2023-04-25T11:14:35;14.77;;;1.33;;
63818;SDS011;49970;54.976;73.248;2023-04-25T11:17:12;9.05;;;1.40;;
63818;SDS011;49970;54.976;73.248;2023-04-25T11:19:38;13.00;;;1.90;;
63818;SDS011;49970;54.976;73.248;2023-04-25T11:22:04;7.70;;;1.25;;
63818;SDS011;49970;54.976;73.248;2023-04-25T11:24:33;3.65;;;1.30;;
63818;SDS011;49970;54.976;73.248;2023-04-25T11:27:10;15.85;;;2.17;;
63818;SDS011;49970;54.976;73.248;2023-04-25T11:29:36;9.30;;;1.20;;
63818;SDS011;49970;54.976;73.248;2023-04-25T11:32:07;6.90;;;1.20;;
63818;SDS011;49970;54.976;73.248;2023-04-25T11:34:34;4.70;;;1.10;;
63818;SDS011;49970;54.976;73.248;2023-04-25T11:37:01;8.32;;;1.00;;
63818;SDS011;49970;54.976;73.248;2023-04-25T11:39:28;37.20;;;11.07;;
63818;SDS011;49970;54.976;73.248;2023-04-25T11:41:55;28.13;;;14.13;;
63818;SDS011;49970;54.976;73.248;2023-04-25T11:44:26;23.15;;;2.53;;
63818;SDS011;49970;54.976;73.248;2023-04-25T11:46:53;7.47;;;1.10;;
63818;SDS011;49970;54.976;73.248;2023-04-25T11:49:31;7.70;;;1.75;;
63818;SDS011;49970;54.976;73.248;2023-04-25T11:51:57;7.70;;;1.92;;
63818;SDS011;49970;54.976;73.248;2023-04-25T11:54:29;3.22;;;0.90;;
63818;SDS011;49970;54.976;73.248;2023-04-25T11:56:55;9.25;;;1.17;;
63818;SDS011;49970;54.976;73.248;2023-04-25T11:59:25;1.80;;;0.73;;
63818;SDS011;49970;54.976;73.248;2023-04-25T12:01:52;2.20;;;0.80;;
63818;SDS011;49970;54.976;73.248;2023-04-25T12:04:19;12.00;;;1.00;;
63818;SDS011;49970;54.976;73.248;2023-04-25T12:06:47;4.18;;;0.70;;
63818;SDS011;49970;54.976;73.248;2023-04-25T12:09:15;7.97;;;1.10;;
63818;SDS011;49970;54.976;73.248;2023-04-25T12:11:54;8.70;;;0.98;;
63818;SDS011;49970;54.976;73.248;2023-04-25T12:14:31;15.77;;;1.20;;
63818;SDS011;49970;54.976;73.248;2023-04-25T12:17:04;7.20;;;0.77;;
63818;SDS011;49970;54.976;73.248;2023-04-25T12:19:34;2.83;;;1.48;;
63818;SDS011;49970;54.976;73.248;2023-04-25T12:22:20;5.15;;;1.90;;
63818;SDS011;49970;54.976;73.248;2023-04-25T12:24:53;1.58;;;0.93;;
63818;SDS011;49970;54.976;73.248;2023-04-25T12:27:31;5.15;;;1.15;;
63818;SDS011;49970;54.976;73.248;2023-04-25T12:30:08;6.72;;;0.98;;
63818;SDS011;49970;54.976;73.248;2023-04-25T12:32:36;2.15;;;0.90;;
63818;SDS011;49970;54.976;73.248;2023-04-25T12:35:04;18.25;;;1.10;;
63818;SDS011;49970;54.976;73.248;2023-04-25T12:37:34;1.65;;;0.90;;
63818;SDS011;49970;54.976;73.248;2023-04-25T12:40:06;5.30;;;1.08;;
63818;SDS011;49970;54.976;73.248;2023-04-25T12:43:56;1.65;;;0.95;;
63818;SDS011;49970;54.976;73.248;2023-04-25T12:47:45;8.18;;;1.30;;
63818;SDS011;49970;54.976;73.248;2023-04-25T12:51:16;57.45;;;3.47;;
63818;SDS011;49970;54.976;73.248;2023-04-25T12:53:42;21.77;;;2.90;;
63818;SDS011;49970;54.976;73.248;2023-04-25T12:56:08;7.95;;;1.13;;
63818;SDS011;49970;54.976;73.248;2023-04-25T12:58:39;9.98;;;1.00;;
63818;SDS011;49970;54.976;73.248;2023-04-25T13:01:05;13.20;;;0.93;;
63818;SDS011;49970;54.976;73.248;2023-04-25T13:03:33;7.82;;;1.00;;
63818;SDS011;49970;54.976;73.248;2023-04-25T13:06:15;3.17;;;0.80;;
63818;SDS011;49970;54.976;73.248;2023-04-25T13:08:43;5.85;;;1.10;;
63818;SDS011;49970;54.976;73.248;2023-04-25T13:11:09;1.35;;;1.00;;
63818;SDS011;49970;54.976;73.248;2023-04-25T13:13:35;7.35;;;0.93;;
63818;SDS011;49970;54.976;73.248;2023-04-25T13:16:02;7.35;;;1.08;;
63818;SDS011;49970;54.976;73.248;2023-04-25T13:18:30;9.30;;;1.20;;
63818;SDS011;49970;54.976;73.248;2023-04-25T13:20:57;3.95;;;1.33;;
63818;SDS011;49970;54.976;73.248;2023-04-25T13:23:25;3.28;;;1.27;;
63818;SDS011;49970;54.976;73.248;2023-04-25T13:25:53;8.85;;;1.40;;
63818;SDS011;49970;54.976;73.248;2023-04-25T13:28:20;4.85;;;1.90;;
63818;SDS011;49970;54.976;73.248;2023-04-25T13:30:47;10.43;;;2.92;;
63818;SDS011;49970;54.976;73.248;2023-04-25T13:33:14;20.80;;;2.65;;
63818;SDS011;49970;54.976;73.248;2023-04-25T13:35:41;24.83;;;1.85;;
63818;SDS011;49970;54.976;73.248;2023-04-25T13:38:07;3.25;;;2.35;;
63818;SDS011;49970;54.976;73.248;2023-04-25T13:40:34;7.53;;;4.40;;
63818;SDS011;49970;54.976;73.248;2023-04-25T13:43:05;23.73;;;10.77;;
63818;SDS011;49970;54.976;73.248;2023-04-25T13:45:34;35.78;;;13.55;;
63818;SDS011;49970;54.976;73.248;2023-04-25T13:48:01;50.30;;;9.77;;
63818;SDS011;49970;54.976;73.248;2023-04-25T13:50:27;18.75;;;4.78;;
63818;SDS011;49970;54.976;73.248;2023-04-25T13:52:53;5.75;;;2.85;;
63818;SDS011;49970;54.976;73.248;2023-04-25T13:55:22;8.85;;;2.85;;
63818;SDS011;49970;54.976;73.248;2023-04-25T13:59:10;6.60;;;2.08;;
63818;SDS011;49970;54.976;73.248;2023-04-25T14:02:41;4.75;;;2.55;;
63818;SDS011;49970;54.976;73.248;2023-04-25T14:05:07;16.27;;;3.03;;
63818;SDS011;49970;54.976;73.248;2023-04-25T14:08:58;9.25;;;2.90;;
63818;SDS011;49970;54.976;73.248;2023-04-25T14:12:49;30.67;;;3.40;;
63818;SDS011;49970;54.976;73.248;2023-04-25T14:17:33;52.63;;;4.97;;
63818;SDS011;49970;54.976;73.248;2023-04-25T14:20:04;43.97;;;4.93;;
63818;SDS011;49970;54.976;73.248;2023-04-25T14:22:31;53.53;;;5.15;;
63818;SDS011;49970;54.976;73.248;2023-04-25T14:24:58;42.33;;;3.75;;
63818;SDS011;49970;54.976;73.248;2023-04-25T14:28:49;74.38;;;4.60;;
63818;SDS011;49970;54.976;73.248;2023-04-25T14:31:30;44.42;;;4.88;;
63818;SDS011;49970;54.976;73.248;2023-04-25T14:33:56;98.05;;;5.35;;
63818;SDS011;49970;54.976;73.248;2023-04-25T14:37:47;61.92;;;4.18;;
63818;SDS011;49970;54.976;73.248;2023-04-25T14:41:38;89.72;;;5.50;;
63818;SDS011;49970;54.976;73.248;2023-04-25T14:49:25;64.20;;;5.75;;
63818;SDS011;49970;54.976;73.248;2023-04-25T14:51:51;65.53;;;6.45;;
63818;SDS011;49970;54.976;73.248;2023-04-25T14:54:17;40.05;;;5.38;;
63818;SDS011;49970;54.976;73.248;2023-04-25T14:56:44;73.35;;;6.53;;
63818;SDS011;49970;54.976;73.248;2023-04-25T14:59:20;76.95;;;7.45;;
63818;SDS011;49970;54.976;73.248;2023-04-25T15:01:46;71.57;;;7.13;;
63818;SDS011;49970;54.976;73.248;2023-04-25T15:04:12;107.05;;;8.45;;
63818;SDS011;49970;54.976;73.248;2023-04-25T15:06:39;86.25;;;7.90;;
63818;SDS011;49970;54.976;73.248;2023-04-25T15:09:05;95.70;;;8.13;;
63818;SDS011;49970;54.976;73.248;2023-04-25T15:11:32;107.30;;;8.95;;
63818;SDS011;49970;54.976;73.248;2023-04-25T15:13:58;61.83;;;6.28;;
63818;SDS011;49970;54.976;73.248;2023-04-25T15:16:25;62.47;;;7.35;;
63818;SDS011;49970;54.976;73.248;2023-04-25T15:19:01;62.00;;;7.15;;
63818;SDS011;49970;54.976;73.248;2023-04-25T15:21:31;105.60;;;9.07;;
63818;SDS011;49970;54.976;73.248;2023-04-25T15:24:02;106.88;;;15.85;;
63818;SDS011;49970;54.976;73.248;2023-04-25T15:26:29;125.63;;;23.05;;
63818;SDS011;49970;54.976;73.248;2023-04-25T15:28:55;123.22;;;27.17;;
63818;SDS011;49970;54.976;73.248;2023-04-25T15:31:27;128.95;;;26.63;;
63818;SDS011;49970;54.976;73.248;2023-04-25T15:33:53;130.00;;;29.02;;
63818;SDS011;49970;54.976;73.248;2023-04-25T15:36:19;133.63;;;30.08;;